KMDH Weather | Aviation | SIU

Home
Southern Illinois University

CONTACT

SIU.EDU

Aviation - Weather

College of Applied Sciences and Arts

KMDH Weather

NOTICE: Although all weather products are taken from the National Weather Service, this data should be used only as a supplement to a formal weather briefing.

Last Updated: Monday, September 24th, 2018, 9:56 pm
Information on this page is updated every 5 minutes.


METARS

KMDH 250252Z AUTO 14004KT 10SM BKN010 BKN013 OVC060 23/22 A2995 RMK AO2 SLP138

KMDH 250228Z AUTO 15004KT 10SM OVC009 23/22 A2995 RMK AO2 CIG 008V013 T02280222

KMDH 250205Z AUTO 15003KT 10SM BKN010 OVC030 23/22 A2995 RMK AO2 CIG 008V013

KMDH 250152Z 00000KT 10SM FEW010 BKN028 OVC034 23/22 A2994 RMK AO2 SLP136

KMDH 250141Z 00000KT 10SM BKN028 OVC036 23/22 A2994 RMK AO2 T02280222

KMDH 250052Z 17004KT 10SM BKN045 OVC055 23/22 A2992 RMK AO2 SLP129 T02280222

KMWA 250235Z AUTO 15003KT 10SM SCT010 BKN049 OVC070 23/22 A2996 RMK AO2

KMWA 250215Z AUTO 16004KT 10SM BKN010 OVC015 23/22 A2996 RMK AO2 T02270222

KMWA 250155Z AUTO 16004KT 10SM BKN015 OVC039 23/22 A2996 RMK AO2 T02260221

KMWA 250135Z AUTO 15003KT 10SM SCT015 BKN041 OVC095 23/22 A2995 RMK AO2

KMWA 250115Z AUTO 15003KT 10SM SCT043 BKN060 OVC110 23/22 A2995 RMK AO2

KMWA 250055Z AUTO 14003KT 10SM RA SCT050 BKN070 OVC110 23/22 A2994 RMK AO2

KMWA 250035Z AUTO 16004KT 10SM SCT011 BKN070 OVC100 23/22 A2994 RMK AO2

KMWA 250015Z AUTO 17005KT 10SM BKN011 BKN015 BKN065 23/22 A2993 RMK AO2

KCGI 250253Z AUTO 15005KT 10SM FEW090 23/22 A2994 RMK AO2 SLP135 T02330222 51012

KCGI 250153Z AUTO 16005KT 10SM FEW031 BKN049 BKN060 24/23 A2993 RMK AO2 SLP132

KCGI 250053Z AUTO 15005KT 10SM SCT027 BKN033 OVC045 24/23 A2992 RMK AO2 SLP128

KSAR 250221Z AUTO 15004KT 10SM OVC047 23/23 A2995 RMK AO2

KSAR 250203Z AUTO 15006KT 10SM SCT036 OVC047 23/23 A2994 RMK AO2

KSAR 250141Z AUTO 15004KT 10SM SCT018 SCT028 OVC038 23/23 A2994 RMK AO2

KSAR 250121Z AUTO 17004KT 10SM SCT018 SCT025 OVC040 23/23 A2993 RMK AO2

KSAR 250101Z AUTO 15004KT 10SM BKN040 OVC050 23/23 A2993 RMK AO2

KSAR 250042Z AUTO 16005KT 10SM BKN042 OVC050 23/23 A2992 RMK AO2

KSAR 250001Z AUTO 16004KT 10SM OVC035 24/23 A2991 RMK AO2

KFAM 250244Z AUTO 16003KT 10SM OVC009 22/22 A2996 RMK AO2 CIG 007V012

KFAM 250214Z AUTO 17004KT 10SM FEW006 OVC011 22/22 A2995 RMK AO2

KFAM 250156Z AUTO 14004KT 10SM OVC011 22/22 A2995 RMK AO2 CIG 005V013 SLP134

KFAM 250151Z AUTO 15004KT 10SM SCT007 OVC011 22/22 A2995 RMK AO2

KFAM 250120Z AUTO 19004KT 10SM OVC013 22/22 A2994 RMK AO2

KFAM 250110Z AUTO 18004KT 10SM OVC009 22/22 A2994 RMK AO2 CIG 007V012

KFAM 250056Z AUTO 19003KT 10SM OVC011 22/22 A2993 RMK AO2 RAE11 CIG 007V014

KFAM 250033Z AUTO 18004KT 10SM OVC011 22/22 A2992 RMK AO2 RAE11 P0000

KFAM 250020Z AUTO 16004KT 10SM BKN009 OVC014 22/22 A2992 RMK AO2 RAE11 CIG

KMVN 250224Z AUTO 18005KT 10SM SCT013 BKN019 OVC042 23/22 A2995 RMK AO2

KMVN 250213Z AUTO 17004KT 10SM SCT017 BKN033 OVC050 23/22 A2995 RMK AO2

KMVN 250156Z AUTO 17005KT 10SM BKN017 OVC037 23/22 A2995 RMK AO2 SLP140

KMVN 250107Z AUTO 17004KT 10SM BKN020 BKN026 OVC060 23/22 A2994 RMK AO2

KMVN 250056Z AUTO 17003KT 10SM SCT020 BKN060 OVC110 23/22 A2993 RMK AO2 SLP133

KMVN 250012Z AUTO 15003KT 2 1/2SM BR SCT034 BKN120 23/22 A2992 RMK AO2 VIS 1V5

KHSB 250235Z AUTO 13005KT 10SM SCT016 BKN070 OVC080 23/23 A2996 RMK AO2 P0001

KHSB 250215Z AUTO 13005KT 7SM -RA SCT018 BKN050 OVC070 23/23 A2996 RMK AO2 P0001

KCIR 250235Z AUTO 15006KT 10SM SCT075 SCT095 23/23 A2995 RMK AO2 T02310230

KCIR 250215Z AUTO 15005KT 10SM SCT050 BKN095 23/23 A2995 RMK AO2 T02310230

KPAH 250253Z 16005KT 9SM FEW065 23/22 A2996 RMK AO2 SLP140 T02330217 51013

KPOF 250233Z AUTO 16004KT 9SM SCT022 BKN031 OVC075 23/23 A2993 RMK AO2 T02330233

KFAM 250244Z AUTO 16003KT 10SM OVC009 22/22 A2996 RMK AO2 CIG 007V012

KFAM 250214Z AUTO 17004KT 10SM FEW006 OVC011 22/22 A2995 RMK AO2

KCPS 250203Z 18004KT 10SM SCT024 BKN029 OVC035 23/21 A2992 RMK AO2 T02330211

KENL 250235Z AUTO 16007KT 10SM SCT019 BKN028 OVC042 24/23 A2994 RMK AO2

KENL 250215Z AUTO 16007KT 10SM BKN028 BKN034 OVC040 24/23 A2994 RMK AO2

KMTO 250253Z AUTO 15005KT 10SM FEW019 BKN025 OVC041 22/20 A2995 RMK AO2 SLP137

KFWC 250235Z AUTO 15003KT 10SM BKN018 OVC028 23/23 A2995 RMK AO1 T02300226

KFWC 250215Z AUTO 00000KT 10SM SCT018 BKN028 OVC046 23/23 A2995 RMK AO1

KCUL 250231Z AUTO 13005KT 4SM BR SCT015 BKN020 OVC026 23/22 A2997 RMK AO2

KCUL 250213Z AUTO 13004KT 7SM SCT015 BKN028 OVC070 23/22 A2996 RMK AO2

KEVV 250254Z 17006KT 10SM BKN035 OVC043 23/22 A2999 RMK AO2 SLP152 60000

KEVV 250210Z 17004KT 10SM SCT024 BKN038 OVC050 23/22 A2998 RMK AO2 T02280222

KCEY 250215Z AUTO 00000KT 6SM BKN004 BKN090 23/23 A2999 RMK AO1

KHOP 250212Z 13005KT 10SM BKN008 BKN085 23/23 A3000 RMK AO2A CIG 008V085 BKN008

KCOU 250254Z AUTO 17003KT 10SM FEW022 BKN030 OVC037 21/20 A2992 RMK AO2 SLP126

KAJG 250215Z AUTO 17006KT 10SM OVC039 23/22 A2997 RMK AO2 T02280220

KM30 250236Z AUTO 00000KT 7SM OVC070 23/22 A2997 RMK AO2

KM30 250216Z AUTO 14003KT 7SM SCT060 OVC070 23/22 A2997 RMK AO2

KDEC 250254Z 14006KT 10SM OVC029 22/19 A2994 RMK AO2 SLP135 T02170189 51009

KDEC 250246Z 14007KT 10SM OVC029 22/19 A2994 RMK AO2 T02170189

KIJX 250215Z AUTO 00000KT 10SM BKN036 BKN043 OVC060 22/20 A2991 RMK AO2


TAFS

KEVV 242320Z 2500/2524 18005KT P6SM SCT015 BKN025

        FM250200 18005KT P6SM FEW020 SCT050

        FM250800 17006KT P6SM BKN035

        FM251100 18007KT P6SM OVC015

        FM251900 20010KT P6SM VCTS BKN025CB


Winds Aloft



Pilot Reports

No pilot reports found for area.



Area Forecast



Significant Weather

WAUS43 KKCI 250245 CHIS WA 250245 AIRMET SIERRA FOR IFR AND MTN OBSCN VALID UNTIL 250900 AIRMET IFR...IA MO WI LM LS MI LH IL IN KY OK AR TN MS AL FROM 20NNW SSM TO 60NNE ASP TO 30ENE ECK TO 30E DXO TO FWA TO CVG TO HNN TO 30ENE GQO TO 20ESE VUZ TO 40E DYR TO 20WNW LIT TO 40SSE OSW TO 20SW DBQ TO 20NNW SSM CIG BLW 010/VIS BLW 3SM PCPN/BR. CONDS CONTG BYD 09Z THRU 15Z. OTLK VALID 0900-1500Z...IFR ND SD NE KS MN IA MO WI LM LS MI IL BOUNDED BY 50SE YWG-30N INL-60ENE INL-70ESE YQT-20NW SSM-60SSE SAW-DBQ-40SSW ICT-60NNE MMB-40ENE LAA-GLD-BFF-30E BIS-30NE ABR- 30NE FAR-50SE YWG CIG BLW 010/VIS BLW 3SM PCPN/BR. CONDS CONTG THRU 15Z.
WAUS44 KKCI 250245 DFWS WA 250245 AIRMET SIERRA FOR IFR AND MTN OBSCN VALID UNTIL 250900 AIRMET IFR...OK AR TN MS AL IA MO WI LM LS MI LH IL IN KY FROM 20NNW SSM TO 60NNE ASP TO 30ENE ECK TO 30E DXO TO FWA TO CVG TO HNN TO 30ENE GQO TO 20ESE VUZ TO 40E DYR TO 20WNW LIT TO 40SSE OSW TO 20SW DBQ TO 20NNW SSM CIG BLW 010/VIS BLW 3SM PCPN/BR. CONDS CONTG BYD 09Z THRU 15Z. OTLK VALID 0900-1500Z...IFR TN AL BOUNDED BY HNN-HMV-GQO-50WNW PZD-40ENE VUZ-40WSW HNN-HNN CIG BLW 010/VIS BLW 3SM PCPN/BR. CONDS DVLPG AFT 15Z. CONDS ENDG BY 15Z.
WAUS43 KKCI 242337 AAA CHIS WA 242337 AMD AIRMET SIERRA UPDT 8 FOR IFR AND MTN OBSCN VALID UNTIL 250300 AIRMET IFR...MO LM MI LH IL IN KY TN...UPDT FROM 70S SSM TO 20E ASP TO 30S ECK TO FWA TO CVG TO HNN TO 50S HNN TO 40WSW VXV TO 30SSE BNA TO 20SSE STL TO 20SE GIJ TO 20SW MKG TO 20NE TVC TO 70S SSM CIG BLW 010/VIS BLW 3SM PCPN/BR. CONDS CONTG BYD 03Z THRU 09Z. OTLK VALID 0300-0900Z AREA 1...IFR SD NE KS MN IA MO WI BOUNDED BY 30NW MSP-30NNW DLL-20E OVR-50WSW OSW-50SSW ICT-20ESE SNY-BFF-70SW RAP-50W RAP-30SE RAP-50S PIR-40W FSD-60ESE ABR-30NW MSP CIG BLW 010/VIS BLW 3SM PCPN/BR/FG. CONDS DVLPG 03-06Z. CONDS CONTG THRU 09Z. AREA 2...IFR MN WI LM LS MI BOUNDED BY 90ESE YWG-20E YQT-40ENE SAW-30NNW DLL-20NW MSP-30ENE FAR-40SSE YWG-90ESE YWG CIG BLW 010/VIS BLW 3SM PCPN/BR. CONDS CONTG THRU 09Z. AREA 3...IFR MO IL KY OK TX AR TN LA MS BOUNDED BY 20NNW STL-50ESE FAM-30NNE DYR-50WSW SQS-40SW AEX-40S EIC-20SW FSM-20ESE MCI-20NNW STL CIG BLW 010/VIS BLW 3SM PCPN/BR/FG. CONDS DVLPG 03-06Z. CONDS CONTG THRU 09Z. AREA 4...IFR MO WI LM LS MI LH IL IN BOUNDED BY 50ENE SAW-20S SSM-40WNW YVV-40SE PMM-30ENE AXC-30ESE STL-20NW STL-30WNW ORD-30NNW DLL-50ENE SAW CIG BLW 010/VIS BLW 3SM PCPN/BR/FG. CONDS CONTG THRU 09Z.
WAUS44 KKCI 242045 DFWS WA 242045 AIRMET SIERRA UPDT 7 FOR IFR AND MTN OBSCN VALID UNTIL 250300 AIRMET IFR...TN MO MI LH IL IN KY FROM 50W YVV TO 40ENE ECK TO DXO TO FWA TO CVG TO HNN TO 40W VXV TO 30SSE BNA TO 60ESE FAM TO 30S STL TO 30ENE AXC TO 20ESE GIJ TO 20SSW ASP TO 50W YVV CIG BLW 010/VIS BLW 3SM PCPN/BR. CONDS CONTG BYD 03Z THRU 09Z. OTLK VALID 0300-0900Z...IFR OK TX AR TN LA MS MO IL KY BOUNDED BY 20NNW STL-50ESE FAM-30NNE DYR-50WSW SQS-40SW AEX-40S EIC-20SW FSM-20ESE MCI-20NNW STL CIG BLW 010/VIS BLW 3SM PCPN/BR/FG. CONDS DVLPG 03-06Z. CONDS CONTG THRU 09Z.
WAUS45 KKCI 250245 SLCT WA 250245 AIRMET TANGO FOR TURB VALID UNTIL 250900 AIRMET TURB...ID MT NV UT FROM 50WSW YXC TO 60SSW YXH TO 20W HVR TO 60SE BVL TO 70SSE FMG TO 40SSW FMG TO 40SE LKV TO 50SE REO TO 50WSW YXC MOD TURB BTN FL180 AND FL380. CONDS CONTG BYD 09Z THRU 15Z. OTLK VALID 0900-1500Z...TURB MT BOUNDED BY 50NE HVR-50NNW ISN-100SE MLS-20NNW BIL-70SE HVR-50NE HVR MOD TURB BLW 100. CONDS DVLPG 09-12Z. CONDS CONTG THRU 15Z.